sensor_id;sensor_type;location;lat;lon;timestamp;temperature;humidity
20068;DHT22;10194;50.824;7.134;2023-02-11T00:00:09;4.50;99.90
20068;DHT22;10194;50.824;7.134;2023-02-11T00:02:39;4.50;99.90
20068;DHT22;10194;50.824;7.134;2023-02-11T00:05:05;4.60;99.90
20068;DHT22;10194;50.824;7.134;2023-02-11T00:07:32;4.80;99.90
20068;DHT22;10194;50.824;7.134;2023-02-11T00:09:58;4.80;99.90
20068;DHT22;10194;50.824;7.134;2023-02-11T00:12:24;4.80;99.90
20068;DHT22;10194;50.824;7.134;2023-02-11T00:14:50;4.70;99.90
20068;DHT22;10194;50.824;7.134;2023-02-11T00:17:16;4.70;99.90
20068;DHT22;10194;50.824;7.134;2023-02-11T00:19:42;4.70;99.90
20068;DHT22;10194;50.824;7.134;2023-02-11T00:22:08;4.70;99.90
20068;DHT22;10194;50.824;7.134;2023-02-11T00:24:35;4.70;99.90
20068;DHT22;10194;50.824;7.134;2023-02-11T00:27:01;4.60;99.90
20068;DHT22;10194;50.824;7.134;2023-02-11T00:29:27;4.70;99.90
20068;DHT22;10194;50.824;7.134;2023-02-11T00:31:53;4.60;99.90
20068;DHT22;10194;50.824;7.134;2023-02-11T00:34:18;4.50;99.90
20068;DHT22;10194;50.824;7.134;2023-02-11T00:36:44;4.40;99.90
20068;DHT22;10194;50.824;7.134;2023-02-11T00:39:10;4.40;99.90
20068;DHT22;10194;50.824;7.134;2023-02-11T00:41:36;4.30;99.90
20068;DHT22;10194;50.824;7.134;2023-02-11T00:44:02;4.30;99.90
20068;DHT22;10194;50.824;7.134;2023-02-11T00:46:28;4.30;99.90
20068;DHT22;10194;50.824;7.134;2023-02-11T00:48:54;4.20;99.90
20068;DHT22;10194;50.824;7.134;2023-02-11T00:51:23;4.20;99.90
20068;DHT22;10194;50.824;7.134;2023-02-11T00:53:50;4.30;99.90
20068;DHT22;10194;50.824;7.134;2023-02-11T00:56:16;4.30;99.90
20068;DHT22;10194;50.824;7.134;2023-02-11T00:58:43;4.30;99.90
20068;DHT22;10194;50.824;7.134;2023-02-11T01:01:10;4.20;99.90
20068;DHT22;10194;50.824;7.134;2023-02-11T01:03:37;4.10;99.90
20068;DHT22;10194;50.824;7.134;2023-02-11T01:06:03;4.00;99.90
20068;DHT22;10194;50.824;7.134;2023-02-11T01:08:30;4.00;99.90
20068;DHT22;10194;50.824;7.134;2023-02-11T01:11:06;4.00;99.90
20068;DHT22;10194;50.824;7.134;2023-02-11T01:13:35;3.90;99.90
20068;DHT22;10194;50.824;7.134;2023-02-11T01:16:02;3.90;99.90
20068;DHT22;10194;50.824;7.134;2023-02-11T01:18:31;3.90;99.90
20068;DHT22;10194;50.824;7.134;2023-02-11T01:20:57;3.80;99.90
20068;DHT22;10194;50.824;7.134;2023-02-11T01:23:23;3.80;99.90
20068;DHT22;10194;50.824;7.134;2023-02-11T01:25:49;3.80;99.90
20068;DHT22;10194;50.824;7.134;2023-02-11T01:28:17;3.70;99.90
20068;DHT22;10194;50.824;7.134;2023-02-11T01:30:44;3.70;99.90
20068;DHT22;10194;50.824;7.134;2023-02-11T01:33:11;3.60;99.90
20068;DHT22;10194;50.824;7.134;2023-02-11T01:35:38;3.50;99.90
20068;DHT22;10194;50.824;7.134;2023-02-11T01:38:06;3.50;99.90
20068;DHT22;10194;50.824;7.134;2023-02-11T01:40:33;3.40;99.90
20068;DHT22;10194;50.824;7.134;2023-02-11T01:42:59;3.40;99.90
20068;DHT22;10194;50.824;7.134;2023-02-11T01:46:05;3.40;99.90
20068;DHT22;10194;50.824;7.134;2023-02-11T01:48:46;3.30;99.90
20068;DHT22;10194;50.824;7.134;2023-02-11T01:51:20;3.30;99.90
20068;DHT22;10194;50.824;7.134;2023-02-11T01:53:49;3.20;99.90
20068;DHT22;10194;50.824;7.134;2023-02-11T01:56:37;3.10;99.90
20068;DHT22;10194;50.824;7.134;2023-02-11T01:59:30;3.20;99.90
20068;DHT22;10194;50.824;7.134;2023-02-11T02:02:00;3.10;99.90
20068;DHT22;10194;50.824;7.134;2023-02-11T02:04:32;3.10;99.90
20068;DHT22;10194;50.824;7.134;2023-02-11T02:07:05;3.20;99.90
20068;DHT22;10194;50.824;7.134;2023-02-11T02:09:39;3.30;99.90
20068;DHT22;10194;50.824;7.134;2023-02-11T02:12:07;3.30;99.90
20068;DHT22;10194;50.824;7.134;2023-02-11T02:14:37;3.20;99.90
20068;DHT22;10194;50.824;7.134;2023-02-11T02:17:04;3.30;99.90
20068;DHT22;10194;50.824;7.134;2023-02-11T02:35:41;3.30;99.90
20068;DHT22;10194;50.824;7.134;2023-02-11T02:41:14;3.40;99.90
20068;DHT22;10194;50.824;7.134;2023-02-11T02:43:43;3.30;99.90
20068;DHT22;10194;50.824;7.134;2023-02-11T02:46:24;3.40;99.90
20068;DHT22;10194;50.824;7.134;2023-02-11T02:48:53;3.40;99.90
20068;DHT22;10194;50.824;7.134;2023-02-11T02:54:59;3.40;99.90
20068;DHT22;10194;50.824;7.134;2023-02-11T03:00:29;3.40;99.90
20068;DHT22;10194;50.824;7.134;2023-02-11T03:05:58;3.50;99.90
20068;DHT22;10194;50.824;7.134;2023-02-11T03:08:54;3.50;99.90
20068;DHT22;10194;50.824;7.134;2023-02-11T03:11:23;3.60;99.90
20068;DHT22;10194;50.824;7.134;2023-02-11T03:13:50;3.60;99.90
20068;DHT22;10194;50.824;7.134;2023-02-11T03:16:27;3.70;99.90
20068;DHT22;10194;50.824;7.134;2023-02-11T03:19:04;3.90;99.90
20068;DHT22;10194;50.824;7.134;2023-02-11T03:21:36;3.90;99.90
20068;DHT22;10194;50.824;7.134;2023-02-11T03:24:16;4.10;99.90
20068;DHT22;10194;50.824;7.134;2023-02-11T03:26:50;4.20;99.90
20068;DHT22;10194;50.824;7.134;2023-02-11T03:32:29;4.60;99.90
20068;DHT22;10194;50.824;7.134;2023-02-11T03:38:04;4.90;99.90
20068;DHT22;10194;50.824;7.134;2023-02-11T03:40:35;5.00;99.90
20068;DHT22;10194;50.824;7.134;2023-02-11T03:43:25;5.10;99.90
20068;DHT22;10194;50.824;7.134;2023-02-11T03:45:55;5.30;99.90
20068;DHT22;10194;50.824;7.134;2023-02-11T03:48:34;5.30;99.90
20068;DHT22;10194;50.824;7.134;2023-02-11T03:51:06;5.30;99.90
20068;DHT22;10194;50.824;7.134;2023-02-11T03:53:32;5.20;99.90
20068;DHT22;10194;50.824;7.134;2023-02-11T03:56:02;5.10;99.90
20068;DHT22;10194;50.824;7.134;2023-02-11T03:58:30;5.00;99.90
20068;DHT22;10194;50.824;7.134;2023-02-11T04:00:56;4.90;99.90
20068;DHT22;10194;50.824;7.134;2023-02-11T04:03:21;4.80;99.90
20068;DHT22;10194;50.824;7.134;2023-02-11T04:05:47;4.80;99.90
20068;DHT22;10194;50.824;7.134;2023-02-11T04:08:13;4.80;99.90
20068;DHT22;10194;50.824;7.134;2023-02-11T04:10:39;4.70;99.90
20068;DHT22;10194;50.824;7.134;2023-02-11T04:13:04;4.60;99.90
20068;DHT22;10194;50.824;7.134;2023-02-11T04:15:31;4.50;99.90
20068;DHT22;10194;50.824;7.134;2023-02-11T04:17:56;4.40;99.90
20068;DHT22;10194;50.824;7.134;2023-02-11T04:20:22;4.30;99.90
20068;DHT22;10194;50.824;7.134;2023-02-11T04:22:48;4.30;99.90
20068;DHT22;10194;50.824;7.134;2023-02-11T04:25:14;4.10;99.90
20068;DHT22;10194;50.824;7.134;2023-02-11T04:27:40;4.00;99.90
20068;DHT22;10194;50.824;7.134;2023-02-11T04:30:08;3.90;99.90
20068;DHT22;10194;50.824;7.134;2023-02-11T04:32:34;4.00;99.90
20068;DHT22;10194;50.824;7.134;2023-02-11T04:35:00;4.00;99.90
20068;DHT22;10194;50.824;7.134;2023-02-11T04:37:27;4.00;99.90
20068;DHT22;10194;50.824;7.134;2023-02-11T04:39:52;4.00;99.90
20068;DHT22;10194;50.824;7.134;2023-02-11T04:42:18;3.90;99.90
20068;DHT22;10194;50.824;7.134;2023-02-11T04:44:44;3.80;99.90
20068;DHT22;10194;50.824;7.134;2023-02-11T04:47:10;3.80;99.90
20068;DHT22;10194;50.824;7.134;2023-02-11T04:49:38;3.80;99.90
20068;DHT22;10194;50.824;7.134;2023-02-11T04:52:04;3.70;99.90
20068;DHT22;10194;50.824;7.134;2023-02-11T04:54:29;3.80;99.90
20068;DHT22;10194;50.824;7.134;2023-02-11T04:56:55;3.80;99.90
20068;DHT22;10194;50.824;7.134;2023-02-11T04:59:21;3.90;99.90
20068;DHT22;10194;50.824;7.134;2023-02-11T05:01:47;3.90;99.90
20068;DHT22;10194;50.824;7.134;2023-02-11T05:04:14;3.90;99.90
20068;DHT22;10194;50.824;7.134;2023-02-11T05:06:40;3.80;99.90
20068;DHT22;10194;50.824;7.134;2023-02-11T05:09:06;3.80;99.90
20068;DHT22;10194;50.824;7.134;2023-02-11T05:11:32;3.90;99.90
20068;DHT22;10194;50.824;7.134;2023-02-11T05:14:01;3.90;99.90
20068;DHT22;10194;50.824;7.134;2023-02-11T05:16:26;3.90;99.90
20068;DHT22;10194;50.824;7.134;2023-02-11T05:18:52;3.90;99.90
20068;DHT22;10194;50.824;7.134;2023-02-11T05:21:20;3.90;99.90
20068;DHT22;10194;50.824;7.134;2023-02-11T05:23:46;3.90;99.90
20068;DHT22;10194;50.824;7.134;2023-02-11T05:26:12;3.90;99.90
20068;DHT22;10194;50.824;7.134;2023-02-11T05:28:39;3.90;99.90
20068;DHT22;10194;50.824;7.134;2023-02-11T05:31:05;4.00;99.90
20068;DHT22;10194;50.824;7.134;2023-02-11T05:33:31;4.00;99.90
20068;DHT22;10194;50.824;7.134;2023-02-11T05:36:03;4.00;99.90
20068;DHT22;10194;50.824;7.134;2023-02-11T05:38:31;4.00;99.90
20068;DHT22;10194;50.824;7.134;2023-02-11T05:40:57;4.00;99.90
20068;DHT22;10194;50.824;7.134;2023-02-11T05:43:23;4.00;99.90
20068;DHT22;10194;50.824;7.134;2023-02-11T05:45:49;4.00;99.90
20068;DHT22;10194;50.824;7.134;2023-02-11T05:48:15;4.10;99.90
20068;DHT22;10194;50.824;7.134;2023-02-11T05:50:41;4.00;99.90
20068;DHT22;10194;50.824;7.134;2023-02-11T05:53:07;4.00;99.90
20068;DHT22;10194;50.824;7.134;2023-02-11T05:55:33;4.00;99.90
20068;DHT22;10194;50.824;7.134;2023-02-11T05:57:58;4.20;99.90
20068;DHT22;10194;50.824;7.134;2023-02-11T06:00:25;4.20;99.90
20068;DHT22;10194;50.824;7.134;2023-02-11T06:02:51;4.20;99.90
20068;DHT22;10194;50.824;7.134;2023-02-11T06:05:17;4.30;99.90
20068;DHT22;10194;50.824;7.134;2023-02-11T06:07:43;4.30;99.90
20068;DHT22;10194;50.824;7.134;2023-02-11T06:10:09;4.30;99.90
20068;DHT22;10194;50.824;7.134;2023-02-11T06:12:36;4.30;99.90
20068;DHT22;10194;50.824;7.134;2023-02-11T06:15:03;4.30;99.90
20068;DHT22;10194;50.824;7.134;2023-02-11T06:17:29;4.30;99.90
20068;DHT22;10194;50.824;7.134;2023-02-11T06:19:58;4.30;99.90
20068;DHT22;10194;50.824;7.134;2023-02-11T06:22:24;4.30;99.90
20068;DHT22;10194;50.824;7.134;2023-02-11T06:24:50;4.30;99.90
20068;DHT22;10194;50.824;7.134;2023-02-11T06:27:16;4.20;99.90
20068;DHT22;10194;50.824;7.134;2023-02-11T06:29:44;4.30;99.90
20068;DHT22;10194;50.824;7.134;2023-02-11T06:32:10;4.20;99.90
20068;DHT22;10194;50.824;7.134;2023-02-11T06:34:36;4.20;99.90
20068;DHT22;10194;50.824;7.134;2023-02-11T06:37:02;4.20;99.90
20068;DHT22;10194;50.824;7.134;2023-02-11T06:39:28;4.20;99.90
20068;DHT22;10194;50.824;7.134;2023-02-11T06:41:54;4.30;99.90
20068;DHT22;10194;50.824;7.134;2023-02-11T06:44:19;4.20;99.90
20068;DHT22;10194;50.824;7.134;2023-02-11T06:46:45;4.30;99.90
20068;DHT22;10194;50.824;7.134;2023-02-11T06:49:11;4.30;99.90
20068;DHT22;10194;50.824;7.134;2023-02-11T06:51:37;4.30;99.90
20068;DHT22;10194;50.824;7.134;2023-02-11T06:54:04;4.30;99.90
20068;DHT22;10194;50.824;7.134;2023-02-11T06:56:31;4.30;99.90
20068;DHT22;10194;50.824;7.134;2023-02-11T06:58:57;4.30;99.90
20068;DHT22;10194;50.824;7.134;2023-02-11T07:01:24;4.40;99.90
20068;DHT22;10194;50.824;7.134;2023-02-11T07:03:50;4.40;99.90
20068;DHT22;10194;50.824;7.134;2023-02-11T07:06:19;4.40;99.90
20068;DHT22;10194;50.824;7.134;2023-02-11T07:08:46;4.40;99.90
20068;DHT22;10194;50.824;7.134;2023-02-11T07:11:15;4.40;99.90
20068;DHT22;10194;50.824;7.134;2023-02-11T07:13:45;4.40;99.90
20068;DHT22;10194;50.824;7.134;2023-02-11T07:16:14;4.50;99.90
20068;DHT22;10194;50.824;7.134;2023-02-11T07:18:42;4.50;99.90
20068;DHT22;10194;50.824;7.134;2023-02-11T07:21:10;4.50;99.90
20068;DHT22;10194;50.824;7.134;2023-02-11T07:23:38;4.50;99.90
20068;DHT22;10194;50.824;7.134;2023-02-11T07:26:07;4.50;99.90
20068;DHT22;10194;50.824;7.134;2023-02-11T07:28:35;4.60;99.90
20068;DHT22;10194;50.824;7.134;2023-02-11T07:31:12;4.60;99.90
20068;DHT22;10194;50.824;7.134;2023-02-11T07:33:43;4.60;99.90
20068;DHT22;10194;50.824;7.134;2023-02-11T07:36:11;4.60;99.90
20068;DHT22;10194;50.824;7.134;2023-02-11T07:38:38;4.60;99.90
20068;DHT22;10194;50.824;7.134;2023-02-11T07:41:09;4.60;99.90
20068;DHT22;10194;50.824;7.134;2023-02-11T07:43:38;4.60;99.90
20068;DHT22;10194;50.824;7.134;2023-02-11T07:46:26;4.60;99.90
20068;DHT22;10194;50.824;7.134;2023-02-11T07:48:52;4.60;99.90
20068;DHT22;10194;50.824;7.134;2023-02-11T07:51:29;4.70;99.90
20068;DHT22;10194;50.824;7.134;2023-02-11T07:53:57;4.70;99.90
20068;DHT22;10194;50.824;7.134;2023-02-11T07:56:24;4.70;99.90
20068;DHT22;10194;50.824;7.134;2023-02-11T07:58:50;4.70;99.90
20068;DHT22;10194;50.824;7.134;2023-02-11T08:01:18;4.70;99.90
20068;DHT22;10194;50.824;7.134;2023-02-11T08:03:50;4.70;99.90
20068;DHT22;10194;50.824;7.134;2023-02-11T08:06:17;4.60;99.90
20068;DHT22;10194;50.824;7.134;2023-02-11T08:08:45;4.70;99.90
20068;DHT22;10194;50.824;7.134;2023-02-11T08:11:19;4.70;99.90
20068;DHT22;10194;50.824;7.134;2023-02-11T08:13:47;4.70;99.90
20068;DHT22;10194;50.824;7.134;2023-02-11T08:18:49;4.70;99.90
20068;DHT22;10194;50.824;7.134;2023-02-11T08:21:15;4.70;99.90
20068;DHT22;10194;50.824;7.134;2023-02-11T08:23:42;4.80;99.90
20068;DHT22;10194;50.824;7.134;2023-02-11T08:26:20;4.90;99.90
20068;DHT22;10194;50.824;7.134;2023-02-11T08:28:49;4.90;99.90
20068;DHT22;10194;50.824;7.134;2023-02-11T08:31:22;4.90;99.90
20068;DHT22;10194;50.824;7.134;2023-02-11T08:33:53;4.90;99.90
20068;DHT22;10194;50.824;7.134;2023-02-11T08:36:21;4.90;99.90
20068;DHT22;10194;50.824;7.134;2023-02-11T08:38:49;4.90;99.90
20068;DHT22;10194;50.824;7.134;2023-02-11T08:41:16;5.00;99.90
20068;DHT22;10194;50.824;7.134;2023-02-11T08:43:43;5.00;99.90
20068;DHT22;10194;50.824;7.134;2023-02-11T08:46:15;5.10;99.90
20068;DHT22;10194;50.824;7.134;2023-02-11T08:48:43;5.10;99.90
20068;DHT22;10194;50.824;7.134;2023-02-11T08:51:12;5.10;99.90
20068;DHT22;10194;50.824;7.134;2023-02-11T08:53:39;5.10;99.90
20068;DHT22;10194;50.824;7.134;2023-02-11T08:56:05;5.20;99.90
20068;DHT22;10194;50.824;7.134;2023-02-11T08:58:31;5.20;99.90
20068;DHT22;10194;50.824;7.134;2023-02-11T09:00:58;5.20;99.90
20068;DHT22;10194;50.824;7.134;2023-02-11T09:03:24;5.30;99.90
20068;DHT22;10194;50.824;7.134;2023-02-11T09:05:50;5.30;99.90
20068;DHT22;10194;50.824;7.134;2023-02-11T09:08:21;5.30;99.90
20068;DHT22;10194;50.824;7.134;2023-02-11T09:10:47;5.30;99.90
20068;DHT22;10194;50.824;7.134;2023-02-11T09:13:12;5.30;99.90
20068;DHT22;10194;50.824;7.134;2023-02-11T09:15:38;5.30;99.90
20068;DHT22;10194;50.824;7.134;2023-02-11T09:18:04;5.40;99.90
20068;DHT22;10194;50.824;7.134;2023-02-11T09:20:31;5.40;99.90
20068;DHT22;10194;50.824;7.134;2023-02-11T09:22:57;5.40;99.90
20068;DHT22;10194;50.824;7.134;2023-02-11T09:25:24;5.40;99.90
20068;DHT22;10194;50.824;7.134;2023-02-11T09:27:50;5.50;99.90
20068;DHT22;10194;50.824;7.134;2023-02-11T09:30:16;5.60;99.90
20068;DHT22;10194;50.824;7.134;2023-02-11T09:32:42;5.70;99.90
20068;DHT22;10194;50.824;7.134;2023-02-11T09:35:08;5.60;99.90
20068;DHT22;10194;50.824;7.134;2023-02-11T09:37:34;5.60;99.90
20068;DHT22;10194;50.824;7.134;2023-02-11T09:40:00;5.60;99.90
20068;DHT22;10194;50.824;7.134;2023-02-11T09:42:49;5.60;99.90
20068;DHT22;10194;50.824;7.134;2023-02-11T09:45:23;5.60;99.90
20068;DHT22;10194;50.824;7.134;2023-02-11T09:53:23;5.70;99.90
20068;DHT22;10194;50.824;7.134;2023-02-11T09:55:59;5.70;99.90
20068;DHT22;10194;50.824;7.134;2023-02-11T09:58:30;5.70;99.90
20068;DHT22;10194;50.824;7.134;2023-02-11T10:06:55;5.80;99.90
20068;DHT22;10194;50.824;7.134;2023-02-11T10:19:41;5.90;99.90
20068;DHT22;10194;50.824;7.134;2023-02-11T10:23:00;6.00;99.90
20068;DHT22;10194;50.824;7.134;2023-02-11T10:25:27;6.10;99.90
20068;DHT22;10194;50.824;7.134;2023-02-11T10:27:59;6.10;99.90
20068;DHT22;10194;50.824;7.134;2023-02-11T10:30:32;6.10;99.90
20068;DHT22;10194;50.824;7.134;2023-02-11T10:33:02;6.10;99.90
20068;DHT22;10194;50.824;7.134;2023-02-11T10:35:31;6.10;99.90
20068;DHT22;10194;50.824;7.134;2023-02-11T10:37:58;6.20;99.90
20068;DHT22;10194;50.824;7.134;2023-02-11T10:40:26;6.20;99.90
20068;DHT22;10194;50.824;7.134;2023-02-11T10:42:59;6.20;99.90
20068;DHT22;10194;50.824;7.134;2023-02-11T10:47:59;6.20;99.90
20068;DHT22;10194;50.824;7.134;2023-02-11T10:50:29;6.20;99.90
20068;DHT22;10194;50.824;7.134;2023-02-11T10:53:28;6.30;99.90
20068;DHT22;10194;50.824;7.134;2023-02-11T10:55:55;6.30;99.90
20068;DHT22;10194;50.824;7.134;2023-02-11T10:58:25;6.30;99.90
20068;DHT22;10194;50.824;7.134;2023-02-11T11:00:56;6.20;99.90
20068;DHT22;10194;50.824;7.134;2023-02-11T11:03:25;6.30;99.90
20068;DHT22;10194;50.824;7.134;2023-02-11T11:06:01;6.20;99.90
20068;DHT22;10194;50.824;7.134;2023-02-11T11:08:49;6.30;99.90
20068;DHT22;10194;50.824;7.134;2023-02-11T11:11:20;6.40;99.90
20068;DHT22;10194;50.824;7.134;2023-02-11T11:13:59;6.50;99.90
20068;DHT22;10194;50.824;7.134;2023-02-11T11:16:31;6.40;99.90
20068;DHT22;10194;50.824;7.134;2023-02-11T11:24:16;6.40;99.90
20068;DHT22;10194;50.824;7.134;2023-02-11T11:26:46;6.40;99.90
20068;DHT22;10194;50.824;7.134;2023-02-11T11:29:22;6.40;99.90
20068;DHT22;10194;50.824;7.134;2023-02-11T11:31:58;6.50;99.90
20068;DHT22;10194;50.824;7.134;2023-02-11T11:34:39;6.50;99.90
20068;DHT22;10194;50.824;7.134;2023-02-11T11:37:29;6.60;99.90
20068;DHT22;10194;50.824;7.134;2023-02-11T11:40:20;6.70;99.90
20068;DHT22;10194;50.824;7.134;2023-02-11T11:43:04;6.70;99.90
20068;DHT22;10194;50.824;7.134;2023-02-11T11:45:30;6.70;99.90
20068;DHT22;10194;50.824;7.134;2023-02-11T11:50:44;6.60;99.90
20068;DHT22;10194;50.824;7.134;2023-02-11T11:56:15;6.60;99.90
20068;DHT22;10194;50.824;7.134;2023-02-11T11:58:42;6.70;99.90
20068;DHT22;10194;50.824;7.134;2023-02-11T12:04:08;6.80;99.90
20068;DHT22;10194;50.824;7.134;2023-02-11T12:15:34;6.90;99.90
20068;DHT22;10194;50.824;7.134;2023-02-11T12:18:31;7.00;99.90
20068;DHT22;10194;50.824;7.134;2023-02-11T12:24:29;6.90;99.90
20068;DHT22;10194;50.824;7.134;2023-02-11T12:30:31;6.90;99.90
20068;DHT22;10194;50.824;7.134;2023-02-11T12:36:31;7.00;99.90
20068;DHT22;10194;50.824;7.134;2023-02-11T12:42:09;7.00;99.90
20068;DHT22;10194;50.824;7.134;2023-02-11T12:56:10;7.10;99.90
20068;DHT22;10194;50.824;7.134;2023-02-11T12:58:39;7.20;99.90
20068;DHT22;10194;50.824;7.134;2023-02-11T13:01:18;7.20;99.90
20068;DHT22;10194;50.824;7.134;2023-02-11T13:03:55;7.20;99.90
20068;DHT22;10194;50.824;7.134;2023-02-11T13:06:30;7.20;99.90
20068;DHT22;10194;50.824;7.134;2023-02-11T13:09:21;7.20;99.90
20068;DHT22;10194;50.824;7.134;2023-02-11T13:11:54;7.20;99.90
20068;DHT22;10194;50.824;7.134;2023-02-11T13:14:32;7.10;99.90
20068;DHT22;10194;50.824;7.134;2023-02-11T13:17:07;7.20;99.90
20068;DHT22;10194;50.824;7.134;2023-02-11T13:19:44;7.20;99.90
20068;DHT22;10194;50.824;7.134;2023-02-11T13:22:48;7.20;99.90
20068;DHT22;10194;50.824;7.134;2023-02-11T13:25:41;7.20;99.90
20068;DHT22;10194;50.824;7.134;2023-02-11T13:28:39;7.30;99.90
20068;DHT22;10194;50.824;7.134;2023-02-11T13:31:10;7.40;99.90
20068;DHT22;10194;50.824;7.134;2023-02-11T13:33:41;7.40;99.90
20068;DHT22;10194;50.824;7.134;2023-02-11T13:36:09;7.40;99.90
20068;DHT22;10194;50.824;7.134;2023-02-11T13:38:37;7.50;99.90
20068;DHT22;10194;50.824;7.134;2023-02-11T13:43:43;7.60;99.90
20068;DHT22;10194;50.824;7.134;2023-02-11T13:46:14;7.60;99.90
20068;DHT22;10194;50.824;7.134;2023-02-11T13:48:50;7.60;99.90
20068;DHT22;10194;50.824;7.134;2023-02-11T13:54:02;7.60;99.90
20068;DHT22;10194;50.824;7.134;2023-02-11T13:56:37;7.60;99.90
20068;DHT22;10194;50.824;7.134;2023-02-11T14:13:29;7.80;99.90
20068;DHT22;10194;50.824;7.134;2023-02-11T14:16:09;7.80;99.90
20068;DHT22;10194;50.824;7.134;2023-02-11T14:21:18;7.90;99.90
20068;DHT22;10194;50.824;7.134;2023-02-11T14:26:44;8.00;99.90
20068;DHT22;10194;50.824;7.134;2023-02-11T14:29:29;8.00;99.90
20068;DHT22;10194;50.824;7.134;2023-02-11T14:43:58;8.10;99.90
20068;DHT22;10194;50.824;7.134;2023-02-11T14:46:26;8.10;99.90
20068;DHT22;10194;50.824;7.134;2023-02-11T14:48:58;8.00;99.90
20068;DHT22;10194;50.824;7.134;2023-02-11T14:51:28;8.00;99.90
20068;DHT22;10194;50.824;7.134;2023-02-11T14:54:04;8.10;99.90
20068;DHT22;10194;50.824;7.134;2023-02-11T14:56:37;8.00;99.90
20068;DHT22;10194;50.824;7.134;2023-02-11T14:59:15;8.00;99.90
20068;DHT22;10194;50.824;7.134;2023-02-11T15:01:48;8.00;99.90
20068;DHT22;10194;50.824;7.134;2023-02-11T15:04:32;8.10;99.90
20068;DHT22;10194;50.824;7.134;2023-02-11T15:07:05;8.10;99.90
20068;DHT22;10194;50.824;7.134;2023-02-11T15:09:39;8.10;99.90
20068;DHT22;10194;50.824;7.134;2023-02-11T15:12:24;8.10;99.90
20068;DHT22;10194;50.824;7.134;2023-02-11T15:14:56;8.10;99.90
20068;DHT22;10194;50.824;7.134;2023-02-11T15:17:26;8.10;99.90
20068;DHT22;10194;50.824;7.134;2023-02-11T15:19:56;8.20;99.90
20068;DHT22;10194;50.824;7.134;2023-02-11T15:22:28;8.10;99.90
20068;DHT22;10194;50.824;7.134;2023-02-11T15:27:42;8.20;99.90
20068;DHT22;10194;50.824;7.134;2023-02-11T15:35:30;8.10;99.90
20068;DHT22;10194;50.824;7.134;2023-02-11T15:37:57;8.10;99.90
20068;DHT22;10194;50.824;7.134;2023-02-11T15:40:28;8.20;99.90
20068;DHT22;10194;50.824;7.134;2023-02-11T15:43:00;8.20;99.90
20068;DHT22;10194;50.824;7.134;2023-02-11T15:48:24;8.20;99.90
20068;DHT22;10194;50.824;7.134;2023-02-11T15:50:56;8.20;99.90
20068;DHT22;10194;50.824;7.134;2023-02-11T15:53:41;8.20;99.90
20068;DHT22;10194;50.824;7.134;2023-02-11T15:58:45;8.20;99.90
20068;DHT22;10194;50.824;7.134;2023-02-11T16:01:12;8.10;99.90
20068;DHT22;10194;50.824;7.134;2023-02-11T16:03:40;8.10;99.90
20068;DHT22;10194;50.824;7.134;2023-02-11T16:06:20;8.10;99.90
20068;DHT22;10194;50.824;7.134;2023-02-11T16:11:33;8.00;99.90
20068;DHT22;10194;50.824;7.134;2023-02-11T16:14:01;8.00;99.90
20068;DHT22;10194;50.824;7.134;2023-02-11T16:16:46;8.00;99.90
20068;DHT22;10194;50.824;7.134;2023-02-11T16:19:17;8.00;99.90
20068;DHT22;10194;50.824;7.134;2023-02-11T16:21:45;8.00;99.90
20068;DHT22;10194;50.824;7.134;2023-02-11T16:24:19;8.00;99.90
20068;DHT22;10194;50.824;7.134;2023-02-11T16:26:58;8.00;99.90
20068;DHT22;10194;50.824;7.134;2023-02-11T16:29:30;7.90;99.90
20068;DHT22;10194;50.824;7.134;2023-02-11T16:32:25;8.00;99.90
20068;DHT22;10194;50.824;7.134;2023-02-11T16:34:53;8.00;99.90
20068;DHT22;10194;50.824;7.134;2023-02-11T16:37:22;7.90;99.90
20068;DHT22;10194;50.824;7.134;2023-02-11T16:39:52;7.90;99.90
20068;DHT22;10194;50.824;7.134;2023-02-11T16:42:18;7.90;99.90
20068;DHT22;10194;50.824;7.134;2023-02-11T16:44:44;7.90;99.90
20068;DHT22;10194;50.824;7.134;2023-02-11T16:47:20;7.90;99.90
20068;DHT22;10194;50.824;7.134;2023-02-11T16:49:49;7.90;99.90
20068;DHT22;10194;50.824;7.134;2023-02-11T16:52:15;7.80;99.90
20068;DHT22;10194;50.824;7.134;2023-02-11T16:54:43;7.80;99.90
20068;DHT22;10194;50.824;7.134;2023-02-11T16:57:17;7.80;99.90
20068;DHT22;10194;50.824;7.134;2023-02-11T16:59:45;7.90;99.90
20068;DHT22;10194;50.824;7.134;2023-02-11T17:02:26;7.80;99.90
20068;DHT22;10194;50.824;7.134;2023-02-11T17:04:57;7.80;99.90
20068;DHT22;10194;50.824;7.134;2023-02-11T17:07:24;7.70;99.90
20068;DHT22;10194;50.824;7.134;2023-02-11T17:09:50;7.70;99.90
20068;DHT22;10194;50.824;7.134;2023-02-11T17:12:17;7.70;99.90
20068;DHT22;10194;50.824;7.134;2023-02-11T17:14:43;7.60;99.90
20068;DHT22;10194;50.824;7.134;2023-02-11T17:17:09;7.60;99.90
20068;DHT22;10194;50.824;7.134;2023-02-11T17:19:36;7.50;99.90
20068;DHT22;10194;50.824;7.134;2023-02-11T17:22:03;7.50;99.90
20068;DHT22;10194;50.824;7.134;2023-02-11T17:24:29;7.50;99.90
20068;DHT22;10194;50.824;7.134;2023-02-11T17:26:55;7.50;99.90
20068;DHT22;10194;50.824;7.134;2023-02-11T17:29:23;7.40;99.90
20068;DHT22;10194;50.824;7.134;2023-02-11T17:31:50;7.40;99.90
20068;DHT22;10194;50.824;7.134;2023-02-11T17:34:17;7.40;99.90
20068;DHT22;10194;50.824;7.134;2023-02-11T17:36:44;7.40;99.90
20068;DHT22;10194;50.824;7.134;2023-02-11T17:39:10;7.40;99.90
20068;DHT22;10194;50.824;7.134;2023-02-11T17:41:37;7.50;99.90
20068;DHT22;10194;50.824;7.134;2023-02-11T17:44:05;7.50;99.90
20068;DHT22;10194;50.824;7.134;2023-02-11T17:46:33;7.40;99.90
20068;DHT22;10194;50.824;7.134;2023-02-11T17:49:00;7.40;99.90
20068;DHT22;10194;50.824;7.134;2023-02-11T17:51:34;7.40;99.90
20068;DHT22;10194;50.824;7.134;2023-02-11T17:54:10;7.40;99.90
20068;DHT22;10194;50.824;7.134;2023-02-11T17:56:37;7.40;99.90
20068;DHT22;10194;50.824;7.134;2023-02-11T17:59:05;7.40;99.90
20068;DHT22;10194;50.824;7.134;2023-02-11T18:01:33;7.30;99.90
20068;DHT22;10194;50.824;7.134;2023-02-11T18:04:00;7.30;99.90
20068;DHT22;10194;50.824;7.134;2023-02-11T18:06:28;7.30;99.90
20068;DHT22;10194;50.824;7.134;2023-02-11T18:08:56;7.30;99.90
20068;DHT22;10194;50.824;7.134;2023-02-11T18:11:24;7.20;99.90
20068;DHT22;10194;50.824;7.134;2023-02-11T18:13:50;7.20;99.90
20068;DHT22;10194;50.824;7.134;2023-02-11T18:16:19;7.20;99.90
20068;DHT22;10194;50.824;7.134;2023-02-11T18:18:46;7.10;99.90
20068;DHT22;10194;50.824;7.134;2023-02-11T18:21:15;7.10;99.90
20068;DHT22;10194;50.824;7.134;2023-02-11T18:23:43;7.00;99.90
20068;DHT22;10194;50.824;7.134;2023-02-11T18:26:10;7.00;99.90
20068;DHT22;10194;50.824;7.134;2023-02-11T18:28:37;7.00;99.90
20068;DHT22;10194;50.824;7.134;2023-02-11T18:31:04;7.00;99.90
20068;DHT22;10194;50.824;7.134;2023-02-11T18:33:30;7.00;99.90
20068;DHT22;10194;50.824;7.134;2023-02-11T18:35:56;6.90;99.90
20068;DHT22;10194;50.824;7.134;2023-02-11T18:38:23;6.80;99.90
20068;DHT22;10194;50.824;7.134;2023-02-11T18:40:49;6.70;99.90
20068;DHT22;10194;50.824;7.134;2023-02-11T18:43:17;6.70;99.90
20068;DHT22;10194;50.824;7.134;2023-02-11T18:45:46;6.70;99.90